sensor_id;sensor_type;location;lat;lon;timestamp;P1;durP1;ratioP1;P2;durP2;ratioP2
2928;SDS011;1474;51.460;7.150;2023-04-04T00:01:02;2.70;;;1.58;;
2928;SDS011;1474;51.460;7.150;2023-04-04T00:03:28;1.33;;;1.05;;
2928;SDS011;1474;51.460;7.150;2023-04-04T00:05:53;4.95;;;1.75;;
2928;SDS011;1474;51.460;7.150;2023-04-04T00:08:19;2.85;;;1.42;;
2928;SDS011;1474;51.460;7.150;2023-04-04T00:10:45;1.92;;;1.30;;
2928;SDS011;1474;51.460;7.150;2023-04-04T00:13:11;3.40;;;1.65;;
2928;SDS011;1474;51.460;7.150;2023-04-04T00:15:37;3.67;;;1.25;;
2928;SDS011;1474;51.460;7.150;2023-04-04T00:18:02;2.08;;;1.58;;
2928;SDS011;1474;51.460;7.150;2023-04-04T00:20:31;1.23;;;0.90;;
2928;SDS011;1474;51.460;7.150;2023-04-04T00:22:57;1.42;;;0.90;;
2928;SDS011;1474;51.460;7.150;2023-04-04T00:25:23;2.47;;;1.30;;
2928;SDS011;1474;51.460;7.150;2023-04-04T00:27:48;1.15;;;1.05;;
2928;SDS011;1474;51.460;7.150;2023-04-04T00:30:15;1.75;;;1.00;;
2928;SDS011;1474;51.460;7.150;2023-04-04T00:32:41;1.98;;;1.58;;
2928;SDS011;1474;51.460;7.150;2023-04-04T00:35:06;5.53;;;1.98;;
2928;SDS011;1474;51.460;7.150;2023-04-04T00:37:32;3.10;;;1.20;;
2928;SDS011;1474;51.460;7.150;2023-04-04T00:39:58;2.08;;;1.52;;
2928;SDS011;1474;51.460;7.150;2023-04-04T00:42:23;1.63;;;1.52;;
2928;SDS011;1474;51.460;7.150;2023-04-04T00:44:50;3.35;;;1.42;;
2928;SDS011;1474;51.460;7.150;2023-04-04T00:47:16;3.15;;;1.10;;
2928;SDS011;1474;51.460;7.150;2023-04-04T00:49:43;1.80;;;1.40;;
2928;SDS011;1474;51.460;7.150;2023-04-04T00:52:10;2.10;;;1.30;;
2928;SDS011;1474;51.460;7.150;2023-04-04T00:54:36;1.55;;;1.00;;
2928;SDS011;1474;51.460;7.150;2023-04-04T00:57:02;3.33;;;2.33;;
2928;SDS011;1474;51.460;7.150;2023-04-04T00:59:31;2.85;;;1.25;;
2928;SDS011;1474;51.460;7.150;2023-04-04T01:01:57;2.97;;;1.33;;
2928;SDS011;1474;51.460;7.150;2023-04-04T01:04:24;2.38;;;1.48;;
2928;SDS011;1474;51.460;7.150;2023-04-04T01:06:49;1.95;;;1.20;;
2928;SDS011;1474;51.460;7.150;2023-04-04T01:09:16;2.97;;;1.70;;
2928;SDS011;1474;51.460;7.150;2023-04-04T01:11:43;2.03;;;0.82;;
2928;SDS011;1474;51.460;7.150;2023-04-04T01:14:10;1.27;;;1.02;;
2928;SDS011;1474;51.460;7.150;2023-04-04T01:16:35;2.20;;;1.67;;
2928;SDS011;1474;51.460;7.150;2023-04-04T01:19:01;2.78;;;1.85;;
2928;SDS011;1474;51.460;7.150;2023-04-04T01:21:30;1.55;;;1.02;;
2928;SDS011;1474;51.460;7.150;2023-04-04T01:24:00;2.15;;;1.45;;
2928;SDS011;1474;51.460;7.150;2023-04-04T01:26:28;2.05;;;1.00;;
2928;SDS011;1474;51.460;7.150;2023-04-04T01:28:57;2.80;;;1.33;;
2928;SDS011;1474;51.460;7.150;2023-04-04T01:31:27;4.90;;;1.67;;
2928;SDS011;1474;51.460;7.150;2023-04-04T01:34:27;1.65;;;1.23;;
2928;SDS011;1474;51.460;7.150;2023-04-04T01:37:26;2.03;;;1.40;;
2928;SDS011;1474;51.460;7.150;2023-04-04T01:40:15;1.60;;;1.10;;
2928;SDS011;1474;51.460;7.150;2023-04-04T01:42:45;2.38;;;1.55;;
2928;SDS011;1474;51.460;7.150;2023-04-04T01:45:12;1.73;;;1.60;;
2928;SDS011;1474;51.460;7.150;2023-04-04T01:47:41;2.47;;;1.30;;
2928;SDS011;1474;51.460;7.150;2023-04-04T01:50:07;5.13;;;2.08;;
2928;SDS011;1474;51.460;7.150;2023-04-04T01:52:34;3.30;;;1.27;;
2928;SDS011;1474;51.460;7.150;2023-04-04T01:55:00;1.67;;;1.58;;
2928;SDS011;1474;51.460;7.150;2023-04-04T01:57:27;1.23;;;1.13;;
2928;SDS011;1474;51.460;7.150;2023-04-04T01:59:53;7.57;;;1.80;;
2928;SDS011;1474;51.460;7.150;2023-04-04T02:02:18;6.22;;;1.60;;
2928;SDS011;1474;51.460;7.150;2023-04-04T02:04:44;1.67;;;1.38;;
2928;SDS011;1474;51.460;7.150;2023-04-04T02:07:10;1.35;;;1.20;;
2928;SDS011;1474;51.460;7.150;2023-04-04T02:09:35;1.83;;;1.50;;
2928;SDS011;1474;51.460;7.150;2023-04-04T02:12:02;3.75;;;1.45;;
2928;SDS011;1474;51.460;7.150;2023-04-04T02:14:28;2.35;;;2.15;;
2928;SDS011;1474;51.460;7.150;2023-04-04T02:16:54;4.38;;;2.05;;
2928;SDS011;1474;51.460;7.150;2023-04-04T02:19:20;2.65;;;2.20;;
2928;SDS011;1474;51.460;7.150;2023-04-04T02:21:45;3.20;;;2.00;;
2928;SDS011;1474;51.460;7.150;2023-04-04T02:24:11;2.05;;;1.58;;
2928;SDS011;1474;51.460;7.150;2023-04-04T02:26:37;1.85;;;1.67;;
2928;SDS011;1474;51.460;7.150;2023-04-04T02:29:03;1.17;;;1.08;;
2928;SDS011;1474;51.460;7.150;2023-04-04T02:31:29;1.63;;;1.48;;
2928;SDS011;1474;51.460;7.150;2023-04-04T02:33:55;2.38;;;1.95;;
2928;SDS011;1474;51.460;7.150;2023-04-04T02:36:21;4.75;;;2.25;;
2928;SDS011;1474;51.460;7.150;2023-04-04T02:38:47;2.22;;;1.60;;
2928;SDS011;1474;51.460;7.150;2023-04-04T02:41:12;2.47;;;1.70;;
2928;SDS011;1474;51.460;7.150;2023-04-04T02:43:38;2.53;;;1.38;;
2928;SDS011;1474;51.460;7.150;2023-04-04T02:46:04;2.85;;;1.50;;
2928;SDS011;1474;51.460;7.150;2023-04-04T02:48:30;3.17;;;1.60;;
2928;SDS011;1474;51.460;7.150;2023-04-04T02:50:56;3.33;;;1.40;;
2928;SDS011;1474;51.460;7.150;2023-04-04T02:53:22;2.30;;;1.73;;
2928;SDS011;1474;51.460;7.150;2023-04-04T02:55:47;3.53;;;2.40;;
2928;SDS011;1474;51.460;7.150;2023-04-04T02:58:13;2.25;;;1.90;;
2928;SDS011;1474;51.460;7.150;2023-04-04T03:00:39;2.13;;;1.35;;
2928;SDS011;1474;51.460;7.150;2023-04-04T03:03:04;2.55;;;1.75;;
2928;SDS011;1474;51.460;7.150;2023-04-04T03:05:31;5.05;;;2.05;;
2928;SDS011;1474;51.460;7.150;2023-04-04T03:07:57;2.17;;;2.00;;
2928;SDS011;1474;51.460;7.150;2023-04-04T03:10:24;2.72;;;1.27;;
2928;SDS011;1474;51.460;7.150;2023-04-04T03:12:51;1.50;;;1.40;;
2928;SDS011;1474;51.460;7.150;2023-04-04T03:15:16;1.85;;;1.45;;
2928;SDS011;1474;51.460;7.150;2023-04-04T03:17:42;2.45;;;2.22;;
2928;SDS011;1474;51.460;7.150;2023-04-04T03:20:09;3.13;;;1.33;;
2928;SDS011;1474;51.460;7.150;2023-04-04T03:22:36;4.32;;;2.22;;
2928;SDS011;1474;51.460;7.150;2023-04-04T03:25:01;6.03;;;1.90;;
2928;SDS011;1474;51.460;7.150;2023-04-04T03:27:29;2.42;;;1.73;;
2928;SDS011;1474;51.460;7.150;2023-04-04T03:29:56;5.78;;;2.13;;
2928;SDS011;1474;51.460;7.150;2023-04-04T03:32:23;2.08;;;1.55;;
2928;SDS011;1474;51.460;7.150;2023-04-04T03:34:49;2.40;;;2.08;;
2928;SDS011;1474;51.460;7.150;2023-04-04T03:37:16;3.65;;;2.10;;
2928;SDS011;1474;51.460;7.150;2023-04-04T03:39:42;2.42;;;2.20;;
2928;SDS011;1474;51.460;7.150;2023-04-04T03:42:07;3.78;;;2.28;;
2928;SDS011;1474;51.460;7.150;2023-04-04T03:44:33;2.28;;;1.52;;
2928;SDS011;1474;51.460;7.150;2023-04-04T03:47:00;2.17;;;1.88;;
2928;SDS011;1474;51.460;7.150;2023-04-04T03:49:26;2.15;;;1.98;;
2928;SDS011;1474;51.460;7.150;2023-04-04T03:51:52;3.47;;;1.90;;
2928;SDS011;1474;51.460;7.150;2023-04-04T03:54:17;4.07;;;2.08;;
2928;SDS011;1474;51.460;7.150;2023-04-04T03:56:43;2.47;;;1.20;;
2928;SDS011;1474;51.460;7.150;2023-04-04T03:59:09;2.58;;;1.98;;
2928;SDS011;1474;51.460;7.150;2023-04-04T04:01:35;2.28;;;1.63;;
2928;SDS011;1474;51.460;7.150;2023-04-04T04:04:00;2.47;;;1.63;;
2928;SDS011;1474;51.460;7.150;2023-04-04T04:06:26;2.58;;;1.75;;
2928;SDS011;1474;51.460;7.150;2023-04-04T04:08:52;3.03;;;1.60;;
2928;SDS011;1474;51.460;7.150;2023-04-04T04:11:17;1.55;;;1.45;;
2928;SDS011;1474;51.460;7.150;2023-04-04T04:13:43;3.05;;;1.35;;
2928;SDS011;1474;51.460;7.150;2023-04-04T04:16:09;2.47;;;2.13;;
2928;SDS011;1474;51.460;7.150;2023-04-04T04:18:35;3.38;;;1.85;;
2928;SDS011;1474;51.460;7.150;2023-04-04T04:21:01;2.20;;;2.00;;
2928;SDS011;1474;51.460;7.150;2023-04-04T04:23:28;2.15;;;1.63;;
2928;SDS011;1474;51.460;7.150;2023-04-04T04:25:54;2.80;;;2.25;;
2928;SDS011;1474;51.460;7.150;2023-04-04T04:28:20;3.30;;;1.85;;
2928;SDS011;1474;51.460;7.150;2023-04-04T04:30:47;2.40;;;1.40;;
2928;SDS011;1474;51.460;7.150;2023-04-04T04:33:13;2.13;;;1.92;;
2928;SDS011;1474;51.460;7.150;2023-04-04T04:35:39;2.60;;;1.92;;
2928;SDS011;1474;51.460;7.150;2023-04-04T04:38:05;2.55;;;1.42;;
2928;SDS011;1474;51.460;7.150;2023-04-04T04:40:32;3.13;;;1.90;;
2928;SDS011;1474;51.460;7.150;2023-04-04T04:42:58;5.00;;;1.63;;
2928;SDS011;1474;51.460;7.150;2023-04-04T04:45:24;2.63;;;1.67;;
2928;SDS011;1474;51.460;7.150;2023-04-04T04:47:50;2.10;;;1.63;;
2928;SDS011;1474;51.460;7.150;2023-04-04T04:50:16;2.80;;;1.65;;
2928;SDS011;1474;51.460;7.150;2023-04-04T04:52:42;2.63;;;2.15;;
2928;SDS011;1474;51.460;7.150;2023-04-04T04:55:08;2.65;;;2.45;;
2928;SDS011;1474;51.460;7.150;2023-04-04T04:57:34;2.40;;;2.15;;
2928;SDS011;1474;51.460;7.150;2023-04-04T05:00:01;3.15;;;1.75;;
2928;SDS011;1474;51.460;7.150;2023-04-04T05:02:28;1.60;;;1.50;;
2928;SDS011;1474;51.460;7.150;2023-04-04T05:04:55;2.20;;;1.80;;
2928;SDS011;1474;51.460;7.150;2023-04-04T05:07:20;2.97;;;2.45;;
2928;SDS011;1474;51.460;7.150;2023-04-04T05:09:47;3.30;;;2.88;;
2928;SDS011;1474;51.460;7.150;2023-04-04T05:12:13;3.47;;;2.28;;
2928;SDS011;1474;51.460;7.150;2023-04-04T05:14:39;4.85;;;3.22;;
2928;SDS011;1474;51.460;7.150;2023-04-04T05:17:05;7.43;;;2.75;;
2928;SDS011;1474;51.460;7.150;2023-04-04T05:19:31;1.13;;;1.02;;
2928;SDS011;1474;51.460;7.150;2023-04-04T05:21:57;2.97;;;2.28;;
2928;SDS011;1474;51.460;7.150;2023-04-04T05:24:23;4.75;;;2.45;;
2928;SDS011;1474;51.460;7.150;2023-04-04T05:26:49;3.28;;;2.60;;
2928;SDS011;1474;51.460;7.150;2023-04-04T05:29:15;3.13;;;2.33;;
2928;SDS011;1474;51.460;7.150;2023-04-04T05:31:41;2.60;;;2.40;;
2928;SDS011;1474;51.460;7.150;2023-04-04T05:34:26;1.70;;;1.60;;
2928;SDS011;1474;51.460;7.150;2023-04-04T05:36:52;3.08;;;2.15;;
2928;SDS011;1474;51.460;7.150;2023-04-04T05:39:18;2.50;;;1.92;;
2928;SDS011;1474;51.460;7.150;2023-04-04T05:41:43;6.00;;;4.10;;
2928;SDS011;1474;51.460;7.150;2023-04-04T05:44:09;7.65;;;2.50;;
2928;SDS011;1474;51.460;7.150;2023-04-04T05:46:35;3.67;;;2.60;;
2928;SDS011;1474;51.460;7.150;2023-04-04T05:49:01;6.20;;;2.58;;
2928;SDS011;1474;51.460;7.150;2023-04-04T05:51:26;4.05;;;2.10;;
2928;SDS011;1474;51.460;7.150;2023-04-04T05:53:52;3.75;;;2.55;;
2928;SDS011;1474;51.460;7.150;2023-04-04T05:56:17;3.35;;;2.35;;
2928;SDS011;1474;51.460;7.150;2023-04-04T05:58:43;3.60;;;2.30;;
2928;SDS011;1474;51.460;7.150;2023-04-04T06:01:10;3.55;;;2.70;;
2928;SDS011;1474;51.460;7.150;2023-04-04T06:03:36;4.22;;;2.20;;
2928;SDS011;1474;51.460;7.150;2023-04-04T06:06:02;2.45;;;2.03;;
2928;SDS011;1474;51.460;7.150;2023-04-04T06:08:30;7.07;;;2.90;;
2928;SDS011;1474;51.460;7.150;2023-04-04T06:10:56;8.95;;;3.20;;
2928;SDS011;1474;51.460;7.150;2023-04-04T06:13:22;3.92;;;2.35;;
2928;SDS011;1474;51.460;7.150;2023-04-04T06:15:47;10.50;;;2.97;;
2928;SDS011;1474;51.460;7.150;2023-04-04T06:18:13;6.38;;;4.13;;
2928;SDS011;1474;51.460;7.150;2023-04-04T06:20:40;6.38;;;3.30;;
2928;SDS011;1474;51.460;7.150;2023-04-04T06:23:06;6.70;;;3.28;;
2928;SDS011;1474;51.460;7.150;2023-04-04T06:25:33;4.35;;;3.53;;
2928;SDS011;1474;51.460;7.150;2023-04-04T06:28:00;7.68;;;3.95;;
2928;SDS011;1474;51.460;7.150;2023-04-04T06:30:27;4.38;;;3.28;;
2928;SDS011;1474;51.460;7.150;2023-04-04T06:32:53;4.70;;;2.97;;
2928;SDS011;1474;51.460;7.150;2023-04-04T06:35:19;5.75;;;3.45;;
2928;SDS011;1474;51.460;7.150;2023-04-04T06:37:45;3.88;;;3.38;;
2928;SDS011;1474;51.460;7.150;2023-04-04T06:40:12;5.45;;;3.60;;
2928;SDS011;1474;51.460;7.150;2023-04-04T06:42:37;4.00;;;2.63;;
2928;SDS011;1474;51.460;7.150;2023-04-04T06:45:03;12.02;;;3.92;;
2928;SDS011;1474;51.460;7.150;2023-04-04T06:47:30;3.60;;;3.03;;
2928;SDS011;1474;51.460;7.150;2023-04-04T06:49:56;3.88;;;2.97;;
2928;SDS011;1474;51.460;7.150;2023-04-04T06:52:22;5.57;;;3.08;;
2928;SDS011;1474;51.460;7.150;2023-04-04T06:54:49;4.93;;;3.28;;
2928;SDS011;1474;51.460;7.150;2023-04-04T06:57:14;10.35;;;2.78;;
2928;SDS011;1474;51.460;7.150;2023-04-04T06:59:42;2.63;;;2.22;;
2928;SDS011;1474;51.460;7.150;2023-04-04T07:02:07;3.83;;;2.55;;
2928;SDS011;1474;51.460;7.150;2023-04-04T07:04:33;4.25;;;3.03;;
2928;SDS011;1474;51.460;7.150;2023-04-04T07:06:59;5.00;;;2.90;;
2928;SDS011;1474;51.460;7.150;2023-04-04T07:09:25;5.25;;;3.45;;
2928;SDS011;1474;51.460;7.150;2023-04-04T07:11:52;5.72;;;3.67;;
2928;SDS011;1474;51.460;7.150;2023-04-04T07:14:18;8.05;;;3.97;;
2928;SDS011;1474;51.460;7.150;2023-04-04T07:16:44;10.10;;;3.50;;
2928;SDS011;1474;51.460;7.150;2023-04-04T07:19:10;6.80;;;3.75;;
2928;SDS011;1474;51.460;7.150;2023-04-04T07:21:35;12.85;;;3.75;;
2928;SDS011;1474;51.460;7.150;2023-04-04T07:24:01;4.63;;;3.50;;
2928;SDS011;1474;51.460;7.150;2023-04-04T07:26:27;5.05;;;3.42;;
2928;SDS011;1474;51.460;7.150;2023-04-04T07:28:52;4.15;;;2.75;;
2928;SDS011;1474;51.460;7.150;2023-04-04T07:31:18;3.90;;;3.28;;
2928;SDS011;1474;51.460;7.150;2023-04-04T07:33:44;4.85;;;3.25;;
2928;SDS011;1474;51.460;7.150;2023-04-04T07:36:09;7.25;;;3.67;;
2928;SDS011;1474;51.460;7.150;2023-04-04T07:38:35;7.13;;;3.13;;
2928;SDS011;1474;51.460;7.150;2023-04-04T07:41:00;4.07;;;3.30;;
2928;SDS011;1474;51.460;7.150;2023-04-04T07:43:26;3.58;;;3.05;;
2928;SDS011;1474;51.460;7.150;2023-04-04T07:45:53;6.93;;;2.60;;
2928;SDS011;1474;51.460;7.150;2023-04-04T07:48:19;1.85;;;1.70;;
2928;SDS011;1474;51.460;7.150;2023-04-04T07:50:45;4.82;;;2.47;;
2928;SDS011;1474;51.460;7.150;2023-04-04T07:53:10;2.25;;;1.27;;
2928;SDS011;1474;51.460;7.150;2023-04-04T07:55:36;3.05;;;2.17;;
2928;SDS011;1474;51.460;7.150;2023-04-04T07:58:02;2.33;;;1.30;;
2928;SDS011;1474;51.460;7.150;2023-04-04T08:00:27;2.20;;;1.40;;
2928;SDS011;1474;51.460;7.150;2023-04-04T08:02:54;3.65;;;1.67;;
2928;SDS011;1474;51.460;7.150;2023-04-04T08:05:22;4.90;;;2.17;;
2928;SDS011;1474;51.460;7.150;2023-04-04T08:07:49;3.22;;;2.20;;
2928;SDS011;1474;51.460;7.150;2023-04-04T08:10:15;1.27;;;1.17;;
2928;SDS011;1474;51.460;7.150;2023-04-04T08:12:41;2.45;;;1.98;;
2928;SDS011;1474;51.460;7.150;2023-04-04T08:15:08;2.22;;;1.73;;
2928;SDS011;1474;51.460;7.150;2023-04-04T08:17:35;3.83;;;1.40;;
2928;SDS011;1474;51.460;7.150;2023-04-04T08:20:01;1.95;;;1.10;;
2928;SDS011;1474;51.460;7.150;2023-04-04T08:22:28;0.60;;;0.60;;
2928;SDS011;1474;51.460;7.150;2023-04-04T08:24:53;1.77;;;0.98;;
2928;SDS011;1474;51.460;7.150;2023-04-04T08:27:19;3.55;;;1.30;;
2928;SDS011;1474;51.460;7.150;2023-04-04T08:29:45;0.63;;;0.43;;
2928;SDS011;1474;51.460;7.150;2023-04-04T08:32:12;1.15;;;0.80;;
2928;SDS011;1474;51.460;7.150;2023-04-04T08:34:39;3.10;;;1.52;;
2928;SDS011;1474;51.460;7.150;2023-04-04T08:37:05;1.23;;;0.85;;
2928;SDS011;1474;51.460;7.150;2023-04-04T08:39:31;4.50;;;0.95;;
2928;SDS011;1474;51.460;7.150;2023-04-04T08:42:04;0.85;;;0.60;;
2928;SDS011;1474;51.460;7.150;2023-04-04T08:44:31;1.17;;;0.82;;
2928;SDS011;1474;51.460;7.150;2023-04-04T08:46:59;0.98;;;0.95;;
2928;SDS011;1474;51.460;7.150;2023-04-04T08:49:26;0.65;;;0.65;;
2928;SDS011;1474;51.460;7.150;2023-04-04T08:51:55;4.50;;;1.10;;
2928;SDS011;1474;51.460;7.150;2023-04-04T08:54:23;2.28;;;1.42;;
2928;SDS011;1474;51.460;7.150;2023-04-04T08:56:50;2.97;;;1.67;;
2928;SDS011;1474;51.460;7.150;2023-04-04T08:59:16;0.75;;;0.75;;
2928;SDS011;1474;51.460;7.150;2023-04-04T09:01:43;7.90;;;1.38;;
2928;SDS011;1474;51.460;7.150;2023-04-04T09:04:09;1.70;;;1.20;;
2928;SDS011;1474;51.460;7.150;2023-04-04T09:06:35;2.05;;;1.30;;
2928;SDS011;1474;51.460;7.150;2023-04-04T09:09:01;2.17;;;0.90;;
2928;SDS011;1474;51.460;7.150;2023-04-04T09:11:29;8.32;;;1.45;;
2928;SDS011;1474;51.460;7.150;2023-04-04T09:13:56;1.73;;;1.30;;
2928;SDS011;1474;51.460;7.150;2023-04-04T09:16:22;1.50;;;1.15;;
2928;SDS011;1474;51.460;7.150;2023-04-04T09:18:48;2.85;;;1.48;;
2928;SDS011;1474;51.460;7.150;2023-04-04T09:21:14;2.53;;;1.48;;
2928;SDS011;1474;51.460;7.150;2023-04-04T09:23:40;4.45;;;1.40;;
2928;SDS011;1474;51.460;7.150;2023-04-04T09:26:07;2.10;;;0.68;;
2928;SDS011;1474;51.460;7.150;2023-04-04T09:28:33;1.77;;;1.10;;
2928;SDS011;1474;51.460;7.150;2023-04-04T09:31:00;1.98;;;1.63;;
2928;SDS011;1474;51.460;7.150;2023-04-04T09:33:27;1.77;;;1.25;;
2928;SDS011;1474;51.460;7.150;2023-04-04T09:36:25;1.55;;;1.27;;
2928;SDS011;1474;51.460;7.150;2023-04-04T09:38:44;1.30;;;1.02;;
2928;SDS011;1474;51.460;7.150;2023-04-04T09:41:13;3.53;;;1.25;;
2928;SDS011;1474;51.460;7.150;2023-04-04T09:43:39;4.78;;;1.20;;
2928;SDS011;1474;51.460;7.150;2023-04-04T09:46:08;2.55;;;1.30;;
2928;SDS011;1474;51.460;7.150;2023-04-04T09:48:34;3.65;;;1.52;;
2928;SDS011;1474;51.460;7.150;2023-04-04T09:51:04;6.05;;;1.20;;
2928;SDS011;1474;51.460;7.150;2023-04-04T09:53:34;4.40;;;1.55;;
2928;SDS011;1474;51.460;7.150;2023-04-04T09:56:05;2.13;;;1.23;;
2928;SDS011;1474;51.460;7.150;2023-04-04T09:58:31;1.50;;;1.13;;
2928;SDS011;1474;51.460;7.150;2023-04-04T10:01:00;3.50;;;1.75;;
2928;SDS011;1474;51.460;7.150;2023-04-04T10:03:27;2.13;;;1.10;;
2928;SDS011;1474;51.460;7.150;2023-04-04T10:05:54;4.20;;;1.55;;
2928;SDS011;1474;51.460;7.150;2023-04-04T10:10:55;1.90;;;0.93;;
2928;SDS011;1474;51.460;7.150;2023-04-04T10:13:31;1.40;;;0.57;;
2928;SDS011;1474;51.460;7.150;2023-04-04T10:16:00;2.13;;;1.17;;
2928;SDS011;1474;51.460;7.150;2023-04-04T10:18:31;1.48;;;1.25;;
2928;SDS011;1474;51.460;7.150;2023-04-04T10:20:58;2.90;;;0.80;;
2928;SDS011;1474;51.460;7.150;2023-04-04T10:23:25;1.85;;;1.05;;
2928;SDS011;1474;51.460;7.150;2023-04-04T10:26:00;1.15;;;0.90;;
2928;SDS011;1474;51.460;7.150;2023-04-04T10:28:26;4.45;;;1.50;;
2928;SDS011;1474;51.460;7.150;2023-04-04T10:31:05;1.55;;;0.85;;
2928;SDS011;1474;51.460;7.150;2023-04-04T10:36:29;2.63;;;1.20;;
2928;SDS011;1474;51.460;7.150;2023-04-04T10:39:08;1.17;;;0.80;;
2928;SDS011;1474;51.460;7.150;2023-04-04T10:41:37;2.92;;;1.33;;
2928;SDS011;1474;51.460;7.150;2023-04-04T10:47:19;4.05;;;0.82;;
2928;SDS011;1474;51.460;7.150;2023-04-04T10:49:48;3.30;;;1.60;;
2928;SDS011;1474;51.460;7.150;2023-04-04T10:52:15;2.80;;;2.13;;
2928;SDS011;1474;51.460;7.150;2023-04-04T10:54:43;1.77;;;1.35;;
2928;SDS011;1474;51.460;7.150;2023-04-04T10:57:10;2.70;;;1.67;;
2928;SDS011;1474;51.460;7.150;2023-04-04T11:07:46;3.88;;;1.80;;
2928;SDS011;1474;51.460;7.150;2023-04-04T11:10:20;3.50;;;1.70;;
2928;SDS011;1474;51.460;7.150;2023-04-04T11:12:53;4.28;;;1.48;;
2928;SDS011;1474;51.460;7.150;2023-04-04T11:15:22;5.10;;;1.67;;
2928;SDS011;1474;51.460;7.150;2023-04-04T11:17:51;1.35;;;1.20;;
2928;SDS011;1474;51.460;7.150;2023-04-04T11:23:01;1.42;;;0.70;;
2928;SDS011;1474;51.460;7.150;2023-04-04T11:28:13;1.73;;;1.35;;
2928;SDS011;1474;51.460;7.150;2023-04-04T11:31:21;2.35;;;1.80;;
2928;SDS011;1474;51.460;7.150;2023-04-04T11:47:19;1.80;;;1.38;;
2928;SDS011;1474;51.460;7.150;2023-04-04T11:49:47;2.67;;;1.63;;
2928;SDS011;1474;51.460;7.150;2023-04-04T11:52:17;2.30;;;1.25;;
2928;SDS011;1474;51.460;7.150;2023-04-04T11:54:44;2.55;;;1.50;;
2928;SDS011;1474;51.460;7.150;2023-04-04T11:57:11;2.72;;;1.65;;
2928;SDS011;1474;51.460;7.150;2023-04-04T11:59:38;2.38;;;1.60;;
2928;SDS011;1474;51.460;7.150;2023-04-04T12:02:05;3.42;;;1.48;;
2928;SDS011;1474;51.460;7.150;2023-04-04T12:04:31;2.67;;;1.27;;
2928;SDS011;1474;51.460;7.150;2023-04-04T12:06:58;2.55;;;1.15;;
2928;SDS011;1474;51.460;7.150;2023-04-04T12:09:24;2.92;;;1.33;;
2928;SDS011;1474;51.460;7.150;2023-04-04T12:11:50;3.50;;;1.40;;
2928;SDS011;1474;51.460;7.150;2023-04-04T12:16:43;2.28;;;1.42;;
2928;SDS011;1474;51.460;7.150;2023-04-04T12:19:10;1.55;;;1.25;;
2928;SDS011;1474;51.460;7.150;2023-04-04T12:21:36;1.92;;;1.27;;
2928;SDS011;1474;51.460;7.150;2023-04-04T12:24:02;1.95;;;1.15;;
2928;SDS011;1474;51.460;7.150;2023-04-04T12:26:28;1.50;;;1.00;;
2928;SDS011;1474;51.460;7.150;2023-04-04T12:28:54;1.58;;;1.48;;
2928;SDS011;1474;51.460;7.150;2023-04-04T12:31:22;2.55;;;1.52;;
2928;SDS011;1474;51.460;7.150;2023-04-04T12:33:51;2.42;;;1.05;;
2928;SDS011;1474;51.460;7.150;2023-04-04T12:36:17;3.28;;;2.03;;
2928;SDS011;1474;51.460;7.150;2023-04-04T12:41:31;2.03;;;1.50;;
2928;SDS011;1474;51.460;7.150;2023-04-04T12:43:58;1.60;;;1.25;;
2928;SDS011;1474;51.460;7.150;2023-04-04T12:46:37;2.47;;;1.83;;
2928;SDS011;1474;51.460;7.150;2023-04-04T12:49:04;3.50;;;1.10;;
2928;SDS011;1474;51.460;7.150;2023-04-04T12:51:31;2.78;;;1.50;;
2928;SDS011;1474;51.460;7.150;2023-04-04T12:53:57;2.72;;;1.63;;
2928;SDS011;1474;51.460;7.150;2023-04-04T12:56:27;2.63;;;1.55;;
2928;SDS011;1474;51.460;7.150;2023-04-04T12:58:53;1.95;;;1.50;;
2928;SDS011;1474;51.460;7.150;2023-04-04T13:01:25;2.25;;;1.42;;
2928;SDS011;1474;51.460;7.150;2023-04-04T13:03:52;1.77;;;1.02;;
2928;SDS011;1474;51.460;7.150;2023-04-04T13:06:17;3.03;;;1.70;;
2928;SDS011;1474;51.460;7.150;2023-04-04T13:08:52;3.85;;;1.50;;
2928;SDS011;1474;51.460;7.150;2023-04-04T13:11:19;2.35;;;1.52;;
2928;SDS011;1474;51.460;7.150;2023-04-04T13:13:46;2.00;;;1.45;;
2928;SDS011;1474;51.460;7.150;2023-04-04T13:16:13;2.05;;;1.58;;
2928;SDS011;1474;51.460;7.150;2023-04-04T13:18:55;2.88;;;1.40;;
2928;SDS011;1474;51.460;7.150;2023-04-04T13:21:21;2.92;;;1.50;;
2928;SDS011;1474;51.460;7.150;2023-04-04T13:23:47;1.95;;;1.15;;
2928;SDS011;1474;51.460;7.150;2023-04-04T13:26:12;3.10;;;1.95;;
2928;SDS011;1474;51.460;7.150;2023-04-04T13:28:38;3.30;;;1.50;;
2928;SDS011;1474;51.460;7.150;2023-04-04T13:31:04;3.53;;;2.20;;
2928;SDS011;1474;51.460;7.150;2023-04-04T13:33:32;1.55;;;1.45;;
2928;SDS011;1474;51.460;7.150;2023-04-04T13:35:58;3.60;;;1.70;;
2928;SDS011;1474;51.460;7.150;2023-04-04T13:38:24;3.63;;;1.48;;
2928;SDS011;1474;51.460;7.150;2023-04-04T13:40:51;2.72;;;1.60;;
2928;SDS011;1474;51.460;7.150;2023-04-04T13:43:17;6.60;;;1.98;;
2928;SDS011;1474;51.460;7.150;2023-04-04T13:45:42;3.53;;;1.67;;
2928;SDS011;1474;51.460;7.150;2023-04-04T13:48:08;2.08;;;1.42;;
2928;SDS011;1474;51.460;7.150;2023-04-04T13:50:35;5.03;;;1.90;;
2928;SDS011;1474;51.460;7.150;2023-04-04T13:53:01;1.65;;;1.10;;
2928;SDS011;1474;51.460;7.150;2023-04-04T13:55:27;4.95;;;2.22;;
2928;SDS011;1474;51.460;7.150;2023-04-04T13:57:53;2.53;;;1.90;;
2928;SDS011;1474;51.460;7.150;2023-04-04T14:00:18;7.13;;;2.33;;
2928;SDS011;1474;51.460;7.150;2023-04-04T14:02:44;4.50;;;1.80;;
2928;SDS011;1474;51.460;7.150;2023-04-04T14:05:12;3.88;;;2.17;;
2928;SDS011;1474;51.460;7.150;2023-04-04T14:07:39;2.67;;;2.13;;
2928;SDS011;1474;51.460;7.150;2023-04-04T14:10:05;4.32;;;2.03;;
2928;SDS011;1474;51.460;7.150;2023-04-04T14:12:31;2.97;;;1.90;;
2928;SDS011;1474;51.460;7.150;2023-04-04T14:14:58;2.05;;;1.73;;
2928;SDS011;1474;51.460;7.150;2023-04-04T14:17:23;4.65;;;1.92;;
2928;SDS011;1474;51.460;7.150;2023-04-04T14:19:49;4.82;;;2.08;;
2928;SDS011;1474;51.460;7.150;2023-04-04T14:22:14;3.95;;;2.17;;
2928;SDS011;1474;51.460;7.150;2023-04-04T14:24:40;4.50;;;1.67;;
2928;SDS011;1474;51.460;7.150;2023-04-04T14:27:05;3.33;;;2.42;;
2928;SDS011;1474;51.460;7.150;2023-04-04T14:29:31;2.83;;;1.48;;
2928;SDS011;1474;51.460;7.150;2023-04-04T14:31:57;3.42;;;1.88;;
2928;SDS011;1474;51.460;7.150;2023-04-04T14:34:23;2.00;;;1.55;;
2928;SDS011;1474;51.460;7.150;2023-04-04T14:36:50;4.05;;;1.98;;
2928;SDS011;1474;51.460;7.150;2023-04-04T14:39:16;4.40;;;2.25;;
2928;SDS011;1474;51.460;7.150;2023-04-04T14:41:41;3.20;;;2.00;;
2928;SDS011;1474;51.460;7.150;2023-04-04T14:44:07;2.78;;;1.85;;
2928;SDS011;1474;51.460;7.150;2023-04-04T14:46:33;1.90;;;1.40;;
2928;SDS011;1474;51.460;7.150;2023-04-04T14:49:00;3.55;;;1.90;;
2928;SDS011;1474;51.460;7.150;2023-04-04T14:51:27;2.97;;;1.83;;
2928;SDS011;1474;51.460;7.150;2023-04-04T14:53:52;4.55;;;1.65;;
2928;SDS011;1474;51.460;7.150;2023-04-04T14:56:18;2.55;;;1.90;;
2928;SDS011;1474;51.460;7.150;2023-04-04T14:58:44;5.80;;;1.65;;
2928;SDS011;1474;51.460;7.150;2023-04-04T15:01:09;2.15;;;1.45;;
2928;SDS011;1474;51.460;7.150;2023-04-04T15:03:36;2.92;;;1.73;;
2928;SDS011;1474;51.460;7.150;2023-04-04T15:06:02;3.30;;;2.10;;
2928;SDS011;1474;51.460;7.150;2023-04-04T15:08:27;6.53;;;1.60;;
2928;SDS011;1474;51.460;7.150;2023-04-04T15:10:53;2.33;;;1.58;;
2928;SDS011;1474;51.460;7.150;2023-04-04T15:13:19;3.83;;;1.88;;
2928;SDS011;1474;51.460;7.150;2023-04-04T15:15:44;2.55;;;1.80;;
2928;SDS011;1474;51.460;7.150;2023-04-04T15:18:10;1.63;;;1.50;;
2928;SDS011;1474;51.460;7.150;2023-04-04T15:20:36;2.47;;;1.80;;
2928;SDS011;1474;51.460;7.150;2023-04-04T15:23:04;2.15;;;1.48;;
2928;SDS011;1474;51.460;7.150;2023-04-04T15:25:30;4.82;;;1.73;;
2928;SDS011;1474;51.460;7.150;2023-04-04T15:27:57;2.33;;;1.60;;
2928;SDS011;1474;51.460;7.150;2023-04-04T15:30:22;3.38;;;2.25;;
2928;SDS011;1474;51.460;7.150;2023-04-04T15:32:48;3.72;;;1.90;;
2928;SDS011;1474;51.460;7.150;2023-04-04T15:35:15;2.53;;;1.75;;
2928;SDS011;1474;51.460;7.150;2023-04-04T15:37:42;3.00;;;1.65;;
2928;SDS011;1474;51.460;7.150;2023-04-04T15:40:08;3.58;;;1.52;;
2928;SDS011;1474;51.460;7.150;2023-04-04T15:42:34;2.15;;;1.58;;
2928;SDS011;1474;51.460;7.150;2023-04-04T15:45:00;4.57;;;1.48;;
2928;SDS011;1474;51.460;7.150;2023-04-04T15:47:26;2.78;;;1.77;;
2928;SDS011;1474;51.460;7.150;2023-04-04T15:49:51;3.90;;;1.60;;
2928;SDS011;1474;51.460;7.150;2023-04-04T15:52:17;3.50;;;1.67;;
2928;SDS011;1474;51.460;7.150;2023-04-04T15:54:42;3.38;;;1.73;;